Flight Track Log - Related Links

Times and Time Zones

All times are in EDT time to prevent confusion due to time zone crossing. See the ASQ5941 flight status page for this flight to view local times or setup timezone preferences in your user account.


Time Position Orientation Groundspeed Altitude Reporting Facility
EDT Latitude Longitude Course Direction KTS MPH feet Rate Location/Type
Tue 02:52:27 PM 42.0167 -87.9333 73° East 206 237 2,600  Level Chicago TRACON
Tue 02:53:27 PM 42.0667 -87.8833 37° Northeast 271 312 3,900 1,466 Climbing Chicago TRACON
Tue 02:54:38 PM 42.1442 -87.8078 36° Northeast 273 314 5,800 1,714 Climbing Chicago Center
Tue 02:55:00 PM 41.9803 -87.2919 80° East  Level Estimated
Tue 02:55:40 PM 42.1794 -87.7119 64° Northeast 295 339 7,700  Level Chicago Center
Tue 02:56:00 PM 41.9794 -87.1382 90° East  Level Estimated
Tue 02:56:43 PM 42.1864 -87.5922 85° East 314 361 9,700  Level Chicago Center
Tue 02:57:00 PM 42.0131 -86.9913 73° East  Level FlightAware Approximate
Tue 02:57:45 PM 42.1703 -87.4733 100° East 319 367 11,500  Level Chicago Center
Tue 02:58:47 PM 42.1753 -87.3214 87° East 353 406 12,600 1,016 Climbing Chicago Center
Tue 02:59:49 PM 42.2103 -87.1853 71° East 378 435 13,600 968 Climbing Chicago Center
Tue 03:00:51 PM 42.2197 -87.0381 85° East 388 447 14,600 1,016 Climbing Chicago Center
Tue 03:01:53 PM 42.2319 -86.8894 84° East 397 457 15,700 1,113 Climbing Chicago Center
Tue 03:02:55 PM 42.2353 -86.7386 88° East 402 463 16,900 1,065 Climbing Chicago Center
Tue 03:03:57 PM 42.2361 -86.5803 90° East 402 463 17,900 968 Climbing Chicago Center
Tue 03:04:59 PM 42.2381 -86.4269 89° East 407 468 18,900 968 Climbing Chicago Center
Tue 03:06:01 PM 42.2386 -86.2711 90° East 413 475 19,900 1,065 Climbing Chicago Center
Tue 03:07:03 PM 42.2494 -86.0811 86° East 422 486 21,100 1,016 Climbing Chicago Center
Tue 03:08:05 PM 42.2686 -85.9361 80° East 427 491 22,000 912 Climbing Chicago Center
Tue 03:09:08 PM 42.2894 -85.7783 80° East 431 496 23,000 1,152 Climbing Chicago Center
Tue 03:10:10 PM 42.3081 -85.5903 82° East 426 490 24,400 1,258 Climbing Chicago Center
Tue 03:11:12 PM 42.3097 -85.4356 89° East 416 479 25,600 1,065 Climbing Chicago Center
Tue 03:12:14 PM 42.3108 -85.2806 89° East 416 479 26,600 968 Climbing Chicago Center
Tue 03:13:16 PM 42.3119 -85.1239 89° East 418 481 27,600 968 Climbing Chicago Center
Tue 03:14:18 PM 42.3131 -84.9689 89° East 417 480 28,600 1,016 Climbing Chicago Center
Tue 03:15:20 PM 42.3131 -84.8131 90° East 417 480 29,700 1,258 Climbing Chicago Center
Tue 03:16:22 PM 42.3139 -84.6275 90° East 412 474 31,200 1,210 Climbing Chicago Center
Tue 03:17:24 PM 42.3100 -84.4700 92° East 419 482 32,200 871 Climbing Chicago Center
Tue 03:18:26 PM 42.3031 -84.3122 93° East 422 486 33,000 720 Climbing Chicago Center
Tue 03:19:29 PM 42.2961 -84.1456 93° East 437 503 33,700 864 Climbing Chicago Center
Tue 03:20:31 PM 42.2903 -83.9808 93° East 441 507 34,800 629 Climbing Chicago Center
Tue 03:21:33 PM 42.2819 -83.7786 93° East 449 517 35,000 96 Climbing Chicago Center
Tue 03:22:36 PM 42.2700 -83.6167 96° East 451 519 35,000  Level Cleveland Center
Tue 03:23:36 PM 42.2606 -83.4225 94° East 465 535 35,000  Level Cleveland Center
Tue 03:24:36 PM 42.2542 -83.2456 93° East 465 535 35,000  Level Cleveland Center
Tue 03:25:36 PM 42.2436 -83.0656 94° East 470 541 35,000  Level Cleveland Center
Tue 03:26:36 PM 42.2347 -82.8911 94° East 465 535 35,000  Level Cleveland Center
Tue 03:27:36 PM 42.2278 -82.7228 93° East 465 535 35,000  Level Cleveland Center
Tue 03:28:36 PM 42.2183 -82.5486 94° East 465 535 35,000  Level Cleveland Center
Tue 03:29:36 PM 42.2064 -82.3800 95° East 465 535 35,000  Level Cleveland Center
Tue 03:30:36 PM 42.1964 -82.2086 94° East 465 535 35,000  Level Cleveland Center
Tue 03:31:36 PM 42.1903 -82.0600 93° East 460 529 35,000  Level Cleveland Center
Tue 03:32:36 PM 42.1797 -81.8861 95° East 460 529 35,000  Level Cleveland Center
Tue 03:33:36 PM 42.1692 -81.7008 94° East 460 529 35,000  Level Cleveland Center
Tue 03:34:36 PM 42.1583 -81.5300 95° East 460 529 35,000  Level Cleveland Center
Tue 03:35:36 PM 42.1469 -81.3617 95° East 460 529 35,000  Level Cleveland Center
Tue 03:36:36 PM 42.1356 -81.1936 95° East 460 529 35,000  Level Cleveland Center
Tue 03:37:36 PM 42.1239 -81.0228 95° East 460 529 35,000  Level Cleveland Center
Tue 03:38:36 PM 42.1139 -80.8547 95° East 460 529 35,000 -150 Level Cleveland Center
Tue 03:39:36 PM 42.1017 -80.6867 96° East 460 529 34,700 -550 Descending Cleveland Center
Tue 03:40:36 PM 42.0914 -80.5356 95° East 455 524 33,900 -900 Descending Cleveland Center
Tue 03:41:36 PM 42.0786 -80.3622 96° East 461 531 32,900 -950 Descending Cleveland Center
Tue 03:42:36 PM 42.0656 -80.1889 96° East 466 536 32,000 -950 Descending Cleveland Center
Tue 03:43:36 PM 42.0525 -80.0183 96° East 459 528 31,000 -1,000 Descending Cleveland Center
Tue 03:44:36 PM 42.0367 -79.8256 96° East 464 534 30,000 -500 Descending Cleveland Center
Tue 03:45:36 PM 42.0250 -79.6525 95° East 464 534 30,000  Level Cleveland Center
Tue 03:46:36 PM 42.0089 -79.4767 97° East 464 534 30,000  Level Cleveland Center
Tue 03:47:36 PM 41.9944 -79.3008 96° East 464 534 30,000  Level Cleveland Center
Tue 03:48:36 PM 41.9800 -79.1222 96° East 464 534 30,000  Level Cleveland Center
Tue 03:49:36 PM 41.9650 -78.9467 96° East 469 540 30,000  Level Cleveland Center
Tue 03:50:36 PM 41.9500 -78.7711 96° East 469 540 30,000  Level Cleveland Center
Tue 03:51:36 PM 41.9344 -78.5958 97° East 469 540 30,000 -250 Level Cleveland Center
Tue 03:52:36 PM 41.9189 -78.4261 97° East 469 540 29,500 -1,100 Descending Cleveland Center
Tue 03:53:36 PM 41.9008 -78.2508 98° East 464 534 27,800 -2,050 Descending Cleveland Center
Tue 03:54:36 PM 41.8847 -78.0758 97° East 464 534 25,400 -1,811 Descending Cleveland Center
Tue 03:56:15 PM 41.8506 -77.8019 99° East 469 540 23,000 -906 Descending New York Center
Tue 03:57:15 PM 41.8100 -77.6417 109° East 458 527 23,000  Level New York Center
Tue 03:58:15 PM 41.7650 -77.4814 111° Southeast 453 521 23,000  Level New York Center
Tue 03:59:15 PM 41.7222 -77.3158 109° East 460 529 23,000 -756 Level New York Center
Tue 04:00:14 PM 41.6789 -77.1533 110° East 465 535 21,500 -7,000 Descending New York Center
Tue 04:01:15 PM 41.6417 -76.9942 107° East 460 529 9,000 -1,835 Descending New York Center
Tue 04:02:15 PM 41.5931 -76.8456 114° Southeast 446 513 17,800 3,600 Climbing New York Center
Tue 04:03:15 PM 41.5544 -76.7033 110° East 434 499 16,200 -1,700 Descending New York Center
Tue 04:04:15 PM 41.5136 -76.5583 111° Southeast 417 480 14,400 -1,700 Descending New York Center
Tue 04:05:15 PM 41.4764 -76.4222 110° East 400 460 12,800 -1,650 Descending New York Center
Tue 04:06:15 PM 41.4428 -76.3006 110° East 369 425 11,100 -1,650 Descending New York Center
Tue 04:07:15 PM 41.4161 -76.1986 109° East 332 382 9,500 -1,050 Descending New York Center
Tue 04:08:15 PM 41.3856 -76.0911 111° Southeast 315 362 9,000 -1,550 Descending New York Center
Tue 04:09:15 PM 41.3944 -75.9867 83° East 297 342 6,400 -2,050 Descending New York Center
Tue 04:10:15 PM 41.4194 -75.8917 71° East 278 320 4,900 -1,250 Descending New York Center
Tue 04:11:15 PM 41.4586 -75.8033 59° Northeast 271 312 3,900 -750 Descending New York Center
Tue 04:12:15 PM 41.4475 -75.7222 100° East 228 262 3,400 -850 Descending New York Center
Tue 04:13:15 PM 41.4117 -75.6781 137° Southeast 183 211 2,200 -850 Descending New York Center
Tue 04:14:15 PM 41.3800 -75.6897 195° South 113 130 1,700 -450 Descending New York Center
Tue 04:15:15 PM 41.3467 -75.6872 177° South 108 124 1,300 -400 Descending New York Center

Login

Don't have an account? Register now (free) for customized features, flight alerts, and more!